sensor_id;sensor_type;location;lat;lon;timestamp;P1;durP1;ratioP1;P2;durP2;ratioP2
16965;SDS011;8599;47.852;12.070;2023-07-02T00:01:52;2.90;;;1.80;;
16965;SDS011;8599;47.852;12.070;2023-07-02T00:04:20;2.60;;;1.85;;
16965;SDS011;8599;47.852;12.070;2023-07-02T00:06:47;2.92;;;1.98;;
16965;SDS011;8599;47.852;12.070;2023-07-02T00:09:14;4.30;;;1.80;;
16965;SDS011;8599;47.852;12.070;2023-07-02T00:11:42;2.17;;;1.97;;
16965;SDS011;8599;47.852;12.070;2023-07-02T00:14:11;3.37;;;1.87;;
16965;SDS011;8599;47.852;12.070;2023-07-02T00:16:41;1.90;;;1.70;;
16965;SDS011;8599;47.852;12.070;2023-07-02T00:19:09;3.40;;;1.90;;
16965;SDS011;8599;47.852;12.070;2023-07-02T00:21:37;2.10;;;1.63;;
16965;SDS011;8599;47.852;12.070;2023-07-02T00:24:05;2.90;;;2.07;;
16965;SDS011;8599;47.852;12.070;2023-07-02T00:26:34;2.97;;;1.97;;
16965;SDS011;8599;47.852;12.070;2023-07-02T00:29:01;3.67;;;2.10;;
16965;SDS011;8599;47.852;12.070;2023-07-02T00:31:29;2.70;;;2.23;;
16965;SDS011;8599;47.852;12.070;2023-07-02T00:33:55;2.40;;;2.20;;
16965;SDS011;8599;47.852;12.070;2023-07-02T00:36:22;2.10;;;1.90;;
16965;SDS011;8599;47.852;12.070;2023-07-02T00:38:50;1.93;;;1.80;;
16965;SDS011;8599;47.852;12.070;2023-07-02T00:41:17;5.67;;;2.47;;
16965;SDS011;8599;47.852;12.070;2023-07-02T00:43:44;3.33;;;2.30;;
16965;SDS011;8599;47.852;12.070;2023-07-02T00:46:11;2.63;;;2.13;;
16965;SDS011;8599;47.852;12.070;2023-07-02T00:48:42;5.53;;;2.10;;
16965;SDS011;8599;47.852;12.070;2023-07-02T00:51:10;2.53;;;2.10;;
16965;SDS011;8599;47.852;12.070;2023-07-02T00:53:39;4.43;;;2.10;;
16965;SDS011;8599;47.852;12.070;2023-07-02T00:56:07;2.97;;;2.00;;
16965;SDS011;8599;47.852;12.070;2023-07-02T00:58:34;3.53;;;2.00;;
16965;SDS011;8599;47.852;12.070;2023-07-02T01:01:04;2.23;;;2.00;;
16965;SDS011;8599;47.852;12.070;2023-07-02T01:03:32;2.30;;;2.03;;
16965;SDS011;8599;47.852;12.070;2023-07-02T01:06:02;3.80;;;1.90;;
16965;SDS011;8599;47.852;12.070;2023-07-02T01:08:29;3.17;;;2.40;;
16965;SDS011;8599;47.852;12.070;2023-07-02T01:10:56;2.63;;;2.33;;
16965;SDS011;8599;47.852;12.070;2023-07-02T01:13:26;2.53;;;1.70;;
16965;SDS011;8599;47.852;12.070;2023-07-02T01:15:54;3.15;;;2.30;;
16965;SDS011;8599;47.852;12.070;2023-07-02T01:18:21;2.60;;;2.10;;
16965;SDS011;8599;47.852;12.070;2023-07-02T01:20:50;4.87;;;2.40;;
16965;SDS011;8599;47.852;12.070;2023-07-02T01:23:19;3.07;;;2.27;;
16965;SDS011;8599;47.852;12.070;2023-07-02T01:25:46;1.70;;;1.60;;
16965;SDS011;8599;47.852;12.070;2023-07-02T01:28:14;3.00;;;1.83;;
16965;SDS011;8599;47.852;12.070;2023-07-02T01:30:41;1.53;;;1.37;;
16965;SDS011;8599;47.852;12.070;2023-07-02T01:33:08;1.30;;;1.20;;
16965;SDS011;8599;47.852;12.070;2023-07-02T01:35:35;2.73;;;1.33;;
16965;SDS011;8599;47.852;12.070;2023-07-02T01:38:03;1.37;;;1.10;;
16965;SDS011;8599;47.852;12.070;2023-07-02T01:40:31;1.07;;;1.03;;
16965;SDS011;8599;47.852;12.070;2023-07-02T01:42:57;1.77;;;0.90;;
16965;SDS011;8599;47.852;12.070;2023-07-02T01:45:24;0.60;;;0.60;;
16965;SDS011;8599;47.852;12.070;2023-07-02T01:47:51;0.70;;;0.50;;
16965;SDS011;8599;47.852;12.070;2023-07-02T01:50:18;0.30;;;0.30;;
16965;SDS011;8599;47.852;12.070;2023-07-02T01:52:45;1.33;;;0.70;;
16965;SDS011;8599;47.852;12.070;2023-07-02T01:55:13;0.57;;;0.57;;
16965;SDS011;8599;47.852;12.070;2023-07-02T01:57:40;0.60;;;0.60;;
16965;SDS011;8599;47.852;12.070;2023-07-02T02:00:07;1.17;;;0.60;;
16965;SDS011;8599;47.852;12.070;2023-07-02T02:02:35;0.70;;;0.70;;
16965;SDS011;8599;47.852;12.070;2023-07-02T02:05:02;0.80;;;0.80;;
16965;SDS011;8599;47.852;12.070;2023-07-02T02:07:29;0.53;;;0.53;;
16965;SDS011;8599;47.852;12.070;2023-07-02T02:09:55;0.60;;;0.60;;
16965;SDS011;8599;47.852;12.070;2023-07-02T02:12:24;0.40;;;0.40;;
16965;SDS011;8599;47.852;12.070;2023-07-02T02:14:50;0.90;;;0.90;;
16965;SDS011;8599;47.852;12.070;2023-07-02T02:17:17;1.53;;;0.77;;
16965;SDS011;8599;47.852;12.070;2023-07-02T02:19:44;0.70;;;0.70;;
16965;SDS011;8599;47.852;12.070;2023-07-02T02:22:11;0.80;;;0.80;;
16965;SDS011;8599;47.852;12.070;2023-07-02T02:24:37;3.50;;;0.50;;
16965;SDS011;8599;47.852;12.070;2023-07-02T02:27:04;0.73;;;0.73;;
16965;SDS011;8599;47.852;12.070;2023-07-02T02:29:32;0.90;;;0.90;;
16965;SDS011;8599;47.852;12.070;2023-07-02T02:31:59;0.57;;;0.57;;
16965;SDS011;8599;47.852;12.070;2023-07-02T02:34:26;0.73;;;0.73;;
16965;SDS011;8599;47.852;12.070;2023-07-02T02:36:54;1.70;;;0.50;;
16965;SDS011;8599;47.852;12.070;2023-07-02T02:39:21;0.77;;;0.77;;
16965;SDS011;8599;47.852;12.070;2023-07-02T02:41:48;1.00;;;0.90;;
16965;SDS011;8599;47.852;12.070;2023-07-02T02:44:15;1.13;;;0.97;;
16965;SDS011;8599;47.852;12.070;2023-07-02T02:46:43;5.67;;;0.80;;
16965;SDS011;8599;47.852;12.070;2023-07-02T02:49:10;1.00;;;0.90;;
16965;SDS011;8599;47.852;12.070;2023-07-02T02:51:37;1.33;;;1.23;;
16965;SDS011;8599;47.852;12.070;2023-07-02T02:54:05;1.30;;;1.10;;
16965;SDS011;8599;47.852;12.070;2023-07-02T02:56:32;0.97;;;0.90;;
16965;SDS011;8599;47.852;12.070;2023-07-02T02:58:59;1.03;;;0.90;;
16965;SDS011;8599;47.852;12.070;2023-07-02T03:01:26;1.00;;;1.00;;
16965;SDS011;8599;47.852;12.070;2023-07-02T03:03:57;1.00;;;0.90;;
16965;SDS011;8599;47.852;12.070;2023-07-02T03:06:24;1.47;;;0.90;;
16965;SDS011;8599;47.852;12.070;2023-07-02T03:08:51;1.20;;;1.10;;
16965;SDS011;8599;47.852;12.070;2023-07-02T03:11:18;1.43;;;1.10;;
16965;SDS011;8599;47.852;12.070;2023-07-02T03:13:45;1.00;;;1.00;;
16965;SDS011;8599;47.852;12.070;2023-07-02T03:16:12;3.70;;;1.00;;
16965;SDS011;8599;47.852;12.070;2023-07-02T03:18:39;1.33;;;1.17;;
16965;SDS011;8599;47.852;12.070;2023-07-02T03:21:07;1.20;;;1.10;;
16965;SDS011;8599;47.852;12.070;2023-07-02T03:23:35;1.20;;;1.10;;
16965;SDS011;8599;47.852;12.070;2023-07-02T03:26:02;1.30;;;1.20;;
16965;SDS011;8599;47.852;12.070;2023-07-02T03:28:29;1.17;;;1.07;;
16965;SDS011;8599;47.852;12.070;2023-07-02T03:30:56;1.93;;;1.50;;
16965;SDS011;8599;47.852;12.070;2023-07-02T03:33:23;1.40;;;1.20;;
16965;SDS011;8599;47.852;12.070;2023-07-02T03:35:49;2.60;;;1.63;;
16965;SDS011;8599;47.852;12.070;2023-07-02T03:38:18;1.80;;;1.20;;
16965;SDS011;8599;47.852;12.070;2023-07-02T03:40:45;2.03;;;1.40;;
16965;SDS011;8599;47.852;12.070;2023-07-02T03:43:11;1.33;;;1.23;;
16965;SDS011;8599;47.852;12.070;2023-07-02T03:45:38;1.47;;;1.37;;
16965;SDS011;8599;47.852;12.070;2023-07-02T03:48:05;2.07;;;1.40;;
16965;SDS011;8599;47.852;12.070;2023-07-02T03:50:32;1.50;;;1.40;;
16965;SDS011;8599;47.852;12.070;2023-07-02T03:52:58;2.17;;;1.53;;
16965;SDS011;8599;47.852;12.070;2023-07-02T03:55:27;1.17;;;1.13;;
16965;SDS011;8599;47.852;12.070;2023-07-02T03:57:53;1.20;;;1.03;;
16965;SDS011;8599;47.852;12.070;2023-07-02T04:00:20;2.07;;;1.30;;
16965;SDS011;8599;47.852;12.070;2023-07-02T04:02:47;2.20;;;1.20;;
16965;SDS011;8599;47.852;12.070;2023-07-02T04:05:14;1.60;;;1.40;;
16965;SDS011;8599;47.852;12.070;2023-07-02T04:07:41;3.73;;;1.20;;
16965;SDS011;8599;47.852;12.070;2023-07-02T04:10:08;1.03;;;1.03;;
16965;SDS011;8599;47.852;12.070;2023-07-02T04:12:36;1.53;;;1.43;;
16965;SDS011;8599;47.852;12.070;2023-07-02T04:15:04;4.40;;;1.40;;
16965;SDS011;8599;47.852;12.070;2023-07-02T04:17:31;1.40;;;1.30;;
16965;SDS011;8599;47.852;12.070;2023-07-02T04:19:59;1.50;;;1.40;;
16965;SDS011;8599;47.852;12.070;2023-07-02T04:22:28;1.63;;;1.53;;
16965;SDS011;8599;47.852;12.070;2023-07-02T04:24:55;2.23;;;1.80;;
16965;SDS011;8599;47.852;12.070;2023-07-02T04:27:22;2.17;;;1.60;;
16965;SDS011;8599;47.852;12.070;2023-07-02T04:29:50;2.10;;;1.73;;
16965;SDS011;8599;47.852;12.070;2023-07-02T04:32:17;1.97;;;1.60;;
16965;SDS011;8599;47.852;12.070;2023-07-02T04:34:44;2.47;;;2.00;;
16965;SDS011;8599;47.852;12.070;2023-07-02T04:37:10;4.27;;;2.00;;
16965;SDS011;8599;47.852;12.070;2023-07-02T04:39:37;2.30;;;2.00;;
16965;SDS011;8599;47.852;12.070;2023-07-02T04:42:05;1.73;;;1.63;;
16965;SDS011;8599;47.852;12.070;2023-07-02T04:44:31;4.43;;;1.83;;
16965;SDS011;8599;47.852;12.070;2023-07-02T04:47:00;2.13;;;1.90;;
16965;SDS011;8599;47.852;12.070;2023-07-02T04:49:27;3.17;;;1.80;;
16965;SDS011;8599;47.852;12.070;2023-07-02T04:51:54;2.10;;;1.80;;
16965;SDS011;8599;47.852;12.070;2023-07-02T04:54:21;1.90;;;1.67;;
16965;SDS011;8599;47.852;12.070;2023-07-02T04:56:48;2.67;;;1.80;;
16965;SDS011;8599;47.852;12.070;2023-07-02T04:59:15;2.13;;;1.63;;
16965;SDS011;8599;47.852;12.070;2023-07-02T05:01:42;4.67;;;2.57;;
16965;SDS011;8599;47.852;12.070;2023-07-02T05:04:10;2.27;;;1.60;;
16965;SDS011;8599;47.852;12.070;2023-07-02T05:06:37;2.67;;;2.07;;
16965;SDS011;8599;47.852;12.070;2023-07-02T05:09:04;5.70;;;1.73;;
16965;SDS011;8599;47.852;12.070;2023-07-02T05:11:31;3.73;;;2.13;;
16965;SDS011;8599;47.852;12.070;2023-07-02T05:13:58;4.37;;;2.07;;
16965;SDS011;8599;47.852;12.070;2023-07-02T05:16:25;2.70;;;1.60;;
16965;SDS011;8599;47.852;12.070;2023-07-02T05:18:51;2.33;;;1.83;;
16965;SDS011;8599;47.852;12.070;2023-07-02T05:21:19;4.23;;;1.90;;
16965;SDS011;8599;47.852;12.070;2023-07-02T05:23:47;4.70;;;1.83;;
16965;SDS011;8599;47.852;12.070;2023-07-02T05:26:14;5.37;;;2.00;;
16965;SDS011;8599;47.852;12.070;2023-07-02T05:28:41;3.00;;;1.90;;
16965;SDS011;8599;47.852;12.070;2023-07-02T05:31:08;3.30;;;1.80;;
16965;SDS011;8599;47.852;12.070;2023-07-02T05:33:35;3.93;;;2.20;;
16965;SDS011;8599;47.852;12.070;2023-07-02T05:36:02;3.67;;;1.93;;
16965;SDS011;8599;47.852;12.070;2023-07-02T05:38:30;3.23;;;2.40;;
16965;SDS011;8599;47.852;12.070;2023-07-02T05:40:58;2.47;;;1.77;;
16965;SDS011;8599;47.852;12.070;2023-07-02T05:43:25;3.03;;;1.93;;
16965;SDS011;8599;47.852;12.070;2023-07-02T05:45:51;2.57;;;2.37;;
16965;SDS011;8599;47.852;12.070;2023-07-02T05:48:18;3.83;;;2.10;;
16965;SDS011;8599;47.852;12.070;2023-07-02T05:50:45;2.23;;;2.00;;
16965;SDS011;8599;47.852;12.070;2023-07-02T05:53:12;2.23;;;2.00;;
16965;SDS011;8599;47.852;12.070;2023-07-02T05:55:41;4.43;;;2.90;;
16965;SDS011;8599;47.852;12.070;2023-07-02T05:58:08;7.87;;;4.13;;
16965;SDS011;8599;47.852;12.070;2023-07-02T06:00:35;5.00;;;2.40;;
16965;SDS011;8599;47.852;12.070;2023-07-02T06:03:02;3.10;;;2.80;;
16965;SDS011;8599;47.852;12.070;2023-07-02T06:05:29;7.10;;;3.60;;
16965;SDS011;8599;47.852;12.070;2023-07-02T06:07:55;8.77;;;3.30;;
16965;SDS011;8599;47.852;12.070;2023-07-02T06:10:22;5.17;;;2.27;;
16965;SDS011;8599;47.852;12.070;2023-07-02T06:12:50;3.20;;;1.80;;
16965;SDS011;8599;47.852;12.070;2023-07-02T06:15:17;5.17;;;2.20;;
16965;SDS011;8599;47.852;12.070;2023-07-02T06:17:44;2.60;;;1.80;;
16965;SDS011;8599;47.852;12.070;2023-07-02T06:20:11;8.60;;;1.90;;
16965;SDS011;8599;47.852;12.070;2023-07-02T06:22:38;2.13;;;1.83;;
16965;SDS011;8599;47.852;12.070;2023-07-02T06:25:07;2.60;;;1.90;;
16965;SDS011;8599;47.852;12.070;2023-07-02T06:27:34;2.10;;;1.80;;
16965;SDS011;8599;47.852;12.070;2023-07-02T06:30:03;3.47;;;2.07;;
16965;SDS011;8599;47.852;12.070;2023-07-02T06:32:31;2.83;;;2.13;;
16965;SDS011;8599;47.852;12.070;2023-07-02T06:34:57;4.00;;;2.30;;
16965;SDS011;8599;47.852;12.070;2023-07-02T06:37:24;3.13;;;2.10;;
16965;SDS011;8599;47.852;12.070;2023-07-02T06:39:51;5.07;;;2.20;;
16965;SDS011;8599;47.852;12.070;2023-07-02T06:42:18;3.70;;;2.27;;
16965;SDS011;8599;47.852;12.070;2023-07-02T06:44:45;5.97;;;2.23;;
16965;SDS011;8599;47.852;12.070;2023-07-02T06:47:13;4.23;;;2.40;;
16965;SDS011;8599;47.852;12.070;2023-07-02T06:49:40;3.80;;;2.30;;
16965;SDS011;8599;47.852;12.070;2023-07-02T06:52:06;2.87;;;2.30;;
16965;SDS011;8599;47.852;12.070;2023-07-02T06:54:33;2.30;;;2.10;;
16965;SDS011;8599;47.852;12.070;2023-07-02T06:57:00;5.93;;;2.50;;
16965;SDS011;8599;47.852;12.070;2023-07-02T06:59:27;5.77;;;2.30;;
16965;SDS011;8599;47.852;12.070;2023-07-02T07:01:54;2.90;;;2.10;;
16965;SDS011;8599;47.852;12.070;2023-07-02T07:04:22;3.27;;;2.53;;
16965;SDS011;8599;47.852;12.070;2023-07-02T07:06:49;3.57;;;2.60;;
16965;SDS011;8599;47.852;12.070;2023-07-02T07:09:16;2.87;;;2.50;;
16965;SDS011;8599;47.852;12.070;2023-07-02T07:11:43;3.63;;;2.50;;
16965;SDS011;8599;47.852;12.070;2023-07-02T07:14:09;6.13;;;2.67;;
16965;SDS011;8599;47.852;12.070;2023-07-02T07:16:36;4.77;;;2.87;;
16965;SDS011;8599;47.852;12.070;2023-07-02T07:19:03;4.80;;;2.50;;
16965;SDS011;8599;47.852;12.070;2023-07-02T07:21:32;3.27;;;2.53;;
16965;SDS011;8599;47.852;12.070;2023-07-02T07:23:59;5.07;;;2.50;;
16965;SDS011;8599;47.852;12.070;2023-07-02T07:26:26;3.60;;;2.30;;
16965;SDS011;8599;47.852;12.070;2023-07-02T07:28:53;5.57;;;2.97;;
16965;SDS011;8599;47.852;12.070;2023-07-02T07:31:22;3.80;;;2.43;;
16965;SDS011;8599;47.852;12.070;2023-07-02T07:33:49;3.70;;;2.70;;
16965;SDS011;8599;47.852;12.070;2023-07-02T07:36:17;2.97;;;2.60;;
16965;SDS011;8599;47.852;12.070;2023-07-02T07:38:45;6.47;;;2.40;;
16965;SDS011;8599;47.852;12.070;2023-07-02T07:41:12;2.73;;;2.50;;
16965;SDS011;8599;47.852;12.070;2023-07-02T07:43:39;3.87;;;2.40;;
16965;SDS011;8599;47.852;12.070;2023-07-02T07:46:05;2.93;;;2.63;;
16965;SDS011;8599;47.852;12.070;2023-07-02T07:48:33;5.57;;;2.50;;
16965;SDS011;8599;47.852;12.070;2023-07-02T07:51:00;3.47;;;2.70;;
16965;SDS011;8599;47.852;12.070;2023-07-02T07:53:26;6.37;;;3.30;;
16965;SDS011;8599;47.852;12.070;2023-07-02T07:55:54;5.57;;;3.10;;
16965;SDS011;8599;47.852;12.070;2023-07-02T07:58:22;5.60;;;3.50;;
16965;SDS011;8599;47.852;12.070;2023-07-02T08:00:49;3.10;;;2.80;;
16965;SDS011;8599;47.852;12.070;2023-07-02T08:03:16;3.73;;;3.07;;
16965;SDS011;8599;47.852;12.070;2023-07-02T08:05:43;3.03;;;2.70;;
16965;SDS011;8599;47.852;12.070;2023-07-02T08:08:09;4.63;;;2.80;;
16965;SDS011;8599;47.852;12.070;2023-07-02T08:10:36;5.20;;;3.10;;
16965;SDS011;8599;47.852;12.070;2023-07-02T08:13:04;4.27;;;3.13;;
16965;SDS011;8599;47.852;12.070;2023-07-02T08:15:31;4.10;;;2.60;;
16965;SDS011;8599;47.852;12.070;2023-07-02T08:17:58;4.87;;;2.93;;
16965;SDS011;8599;47.852;12.070;2023-07-02T08:20:25;7.47;;;3.20;;
16965;SDS011;8599;47.852;12.070;2023-07-02T08:22:52;5.47;;;2.80;;
16965;SDS011;8599;47.852;12.070;2023-07-02T08:25:19;5.80;;;3.10;;
16965;SDS011;8599;47.852;12.070;2023-07-02T08:27:46;17.33;;;9.60;;
16965;SDS011;8599;47.852;12.070;2023-07-02T08:30:15;10.40;;;3.97;;
16965;SDS011;8599;47.852;12.070;2023-07-02T08:32:41;3.10;;;2.50;;
16965;SDS011;8599;47.852;12.070;2023-07-02T08:35:08;2.63;;;2.13;;
16965;SDS011;8599;47.852;12.070;2023-07-02T08:37:35;3.00;;;2.20;;
16965;SDS011;8599;47.852;12.070;2023-07-02T08:40:02;2.43;;;2.10;;
16965;SDS011;8599;47.852;12.070;2023-07-02T08:42:30;2.73;;;2.20;;
16965;SDS011;8599;47.852;12.070;2023-07-02T08:44:57;3.03;;;2.53;;
16965;SDS011;8599;47.852;12.070;2023-07-02T08:47:27;3.73;;;2.10;;
16965;SDS011;8599;47.852;12.070;2023-07-02T08:49:54;4.40;;;1.80;;
16965;SDS011;8599;47.852;12.070;2023-07-02T08:52:20;2.03;;;1.83;;
16965;SDS011;8599;47.852;12.070;2023-07-02T08:54:47;3.13;;;1.93;;
16965;SDS011;8599;47.852;12.070;2023-07-02T08:57:14;3.93;;;2.00;;
16965;SDS011;8599;47.852;12.070;2023-07-02T08:59:41;3.00;;;1.80;;
16965;SDS011;8599;47.852;12.070;2023-07-02T09:02:08;5.93;;;1.97;;
16965;SDS011;8599;47.852;12.070;2023-07-02T09:04:36;5.63;;;2.50;;
16965;SDS011;8599;47.852;12.070;2023-07-02T09:07:03;2.93;;;2.33;;
16965;SDS011;8599;47.852;12.070;2023-07-02T09:09:32;3.03;;;2.30;;
16965;SDS011;8599;47.852;12.070;2023-07-02T09:11:59;2.50;;;2.30;;
16965;SDS011;8599;47.852;12.070;2023-07-02T09:14:27;3.80;;;2.37;;
16965;SDS011;8599;47.852;12.070;2023-07-02T09:17:01;4.13;;;2.47;;
16965;SDS011;8599;47.852;12.070;2023-07-02T09:19:29;2.50;;;2.07;;
16965;SDS011;8599;47.852;12.070;2023-07-02T09:21:58;2.60;;;2.40;;
16965;SDS011;8599;47.852;12.070;2023-07-02T09:24:26;2.57;;;2.10;;
16965;SDS011;8599;47.852;12.070;2023-07-02T09:26:54;2.70;;;2.20;;
16965;SDS011;8599;47.852;12.070;2023-07-02T09:29:23;7.03;;;2.50;;
16965;SDS011;8599;47.852;12.070;2023-07-02T09:31:53;3.50;;;2.50;;
16965;SDS011;8599;47.852;12.070;2023-07-02T09:34:26;4.53;;;2.50;;
16965;SDS011;8599;47.852;12.070;2023-07-02T09:36:54;3.40;;;2.40;;
16965;SDS011;8599;47.852;12.070;2023-07-02T09:39:25;3.27;;;2.10;;
16965;SDS011;8599;47.852;12.070;2023-07-02T09:41:53;5.37;;;2.30;;
16965;SDS011;8599;47.852;12.070;2023-07-02T09:44:21;2.83;;;2.40;;
16965;SDS011;8599;47.852;12.070;2023-07-02T09:46:53;3.57;;;2.20;;
16965;SDS011;8599;47.852;12.070;2023-07-02T09:49:24;9.40;;;2.33;;
16965;SDS011;8599;47.852;12.070;2023-07-02T09:51:52;4.17;;;2.03;;
16965;SDS011;8599;47.852;12.070;2023-07-02T09:54:19;1.90;;;1.80;;
16965;SDS011;8599;47.852;12.070;2023-07-02T09:56:47;1.97;;;1.87;;
16965;SDS011;8599;47.852;12.070;2023-07-02T09:59:14;3.73;;;2.40;;
16965;SDS011;8599;47.852;12.070;2023-07-02T10:01:41;6.47;;;1.97;;
16965;SDS011;8599;47.852;12.070;2023-07-02T10:04:14;4.23;;;2.00;;
16965;SDS011;8599;47.852;12.070;2023-07-02T10:06:44;2.63;;;2.03;;
16965;SDS011;8599;47.852;12.070;2023-07-02T10:09:12;2.37;;;2.07;;
16965;SDS011;8599;47.852;12.070;2023-07-02T10:11:38;2.67;;;2.40;;
16965;SDS011;8599;47.852;12.070;2023-07-02T10:14:07;1.97;;;1.80;;
16965;SDS011;8599;47.852;12.070;2023-07-02T10:16:33;2.10;;;1.87;;
16965;SDS011;8599;47.852;12.070;2023-07-02T10:19:09;2.17;;;1.80;;
16965;SDS011;8599;47.852;12.070;2023-07-02T10:21:36;2.63;;;1.80;;
16965;SDS011;8599;47.852;12.070;2023-07-02T10:24:10;1.83;;;1.60;;
16965;SDS011;8599;47.852;12.070;2023-07-02T10:26:38;2.50;;;1.83;;
16965;SDS011;8599;47.852;12.070;2023-07-02T10:29:07;2.20;;;1.63;;
16965;SDS011;8599;47.852;12.070;2023-07-02T10:31:34;1.50;;;1.30;;
16965;SDS011;8599;47.852;12.070;2023-07-02T10:34:02;1.40;;;1.30;;
16965;SDS011;8599;47.852;12.070;2023-07-02T10:36:28;2.50;;;1.93;;
16965;SDS011;8599;47.852;12.070;2023-07-02T10:39:00;2.50;;;1.60;;
16965;SDS011;8599;47.852;12.070;2023-07-02T10:41:29;2.03;;;1.60;;
16965;SDS011;8599;47.852;12.070;2023-07-02T10:44:04;2.73;;;1.80;;
16965;SDS011;8599;47.852;12.070;2023-07-02T10:46:33;2.53;;;1.90;;
16965;SDS011;8599;47.852;12.070;2023-07-02T10:49:00;2.40;;;2.20;;
16965;SDS011;8599;47.852;12.070;2023-07-02T10:51:27;3.03;;;1.93;;
16965;SDS011;8599;47.852;12.070;2023-07-02T10:53:57;5.67;;;2.20;;
16965;SDS011;8599;47.852;12.070;2023-07-02T10:56:25;2.47;;;1.93;;
16965;SDS011;8599;47.852;12.070;2023-07-02T10:58:52;2.40;;;2.20;;
16965;SDS011;8599;47.852;12.070;2023-07-02T11:01:25;2.80;;;2.00;;
16965;SDS011;8599;47.852;12.070;2023-07-02T11:03:56;2.40;;;2.20;;
16965;SDS011;8599;47.852;12.070;2023-07-02T11:06:24;3.43;;;2.43;;
16965;SDS011;8599;47.852;12.070;2023-07-02T11:08:52;2.40;;;2.20;;
16965;SDS011;8599;47.852;12.070;2023-07-02T11:11:20;2.57;;;2.30;;
16965;SDS011;8599;47.852;12.070;2023-07-02T11:13:48;25.90;;;10.93;;
16965;SDS011;8599;47.852;12.070;2023-07-02T11:16:19;3.47;;;3.10;;
16965;SDS011;8599;47.852;12.070;2023-07-02T11:18:51;2.60;;;2.40;;
16965;SDS011;8599;47.852;12.070;2023-07-02T11:21:18;3.47;;;2.80;;
16965;SDS011;8599;47.852;12.070;2023-07-02T11:23:45;5.00;;;3.03;;
16965;SDS011;8599;47.852;12.070;2023-07-02T11:26:12;3.97;;;2.58;;
16965;SDS011;8599;47.852;12.070;2023-07-02T11:28:47;5.68;;;3.00;;
16965;SDS011;8599;47.852;12.070;2023-07-02T11:31:23;3.63;;;3.00;;
16965;SDS011;8599;47.852;12.070;2023-07-02T11:33:53;3.43;;;3.13;;
16965;SDS011;8599;47.852;12.070;2023-07-02T11:36:21;4.15;;;3.47;;
16965;SDS011;8599;47.852;12.070;2023-07-02T11:38:50;5.60;;;3.67;;
16965;SDS011;8599;47.852;12.070;2023-07-02T11:41:18;6.55;;;4.05;;
16965;SDS011;8599;47.852;12.070;2023-07-02T11:43:47;7.32;;;3.72;;
16965;SDS011;8599;47.852;12.070;2023-07-02T11:46:14;13.70;;;5.45;;
16965;SDS011;8599;47.852;12.070;2023-07-02T11:48:41;7.63;;;5.50;;
16965;SDS011;8599;47.852;12.070;2023-07-02T11:51:09;11.02;;;4.30;;
16965;SDS011;8599;47.852;12.070;2023-07-02T11:53:36;8.85;;;5.10;;
16965;SDS011;8599;47.852;12.070;2023-07-02T11:56:04;12.15;;;7.22;;
16965;SDS011;8599;47.852;12.070;2023-07-02T11:58:31;11.45;;;5.72;;
16965;SDS011;8599;47.852;12.070;2023-07-02T12:00:57;6.90;;;5.05;;
16965;SDS011;8599;47.852;12.070;2023-07-02T12:03:24;12.43;;;6.38;;
16965;SDS011;8599;47.852;12.070;2023-07-02T12:05:51;11.38;;;6.57;;
16965;SDS011;8599;47.852;12.070;2023-07-02T12:08:19;12.40;;;7.43;;
16965;SDS011;8599;47.852;12.070;2023-07-02T12:10:46;15.27;;;7.28;;
16965;SDS011;8599;47.852;12.070;2023-07-02T12:13:13;16.33;;;8.40;;
16965;SDS011;8599;47.852;12.070;2023-07-02T12:15:40;17.58;;;7.78;;
16965;SDS011;8599;47.852;12.070;2023-07-02T12:18:07;19.42;;;9.80;;
16965;SDS011;8599;47.852;12.070;2023-07-02T12:20:34;19.13;;;9.20;;
16965;SDS011;8599;47.852;12.070;2023-07-02T12:23:03;15.27;;;9.50;;
16965;SDS011;8599;47.852;12.070;2023-07-02T12:25:32;21.30;;;9.90;;
16965;SDS011;8599;47.852;12.070;2023-07-02T12:27:59;25.33;;;8.90;;
16965;SDS011;8599;47.852;12.070;2023-07-02T12:30:27;14.57;;;8.52;;
16965;SDS011;8599;47.852;12.070;2023-07-02T12:32:54;17.25;;;8.93;;
16965;SDS011;8599;47.852;12.070;2023-07-02T12:35:21;14.63;;;8.63;;
16965;SDS011;8599;47.852;12.070;2023-07-02T12:37:49;17.10;;;9.10;;
16965;SDS011;8599;47.852;12.070;2023-07-02T12:40:17;15.15;;;8.63;;
16965;SDS011;8599;47.852;12.070;2023-07-02T12:42:46;17.85;;;8.13;;
16965;SDS011;8599;47.852;12.070;2023-07-02T12:45:14;12.07;;;8.27;;
16965;SDS011;8599;47.852;12.070;2023-07-02T12:47:42;14.82;;;7.95;;
16965;SDS011;8599;47.852;12.070;2023-07-02T12:50:09;18.77;;;9.32;;
16965;SDS011;8599;47.852;12.070;2023-07-02T12:52:36;12.32;;;7.95;;
16965;SDS011;8599;47.852;12.070;2023-07-02T12:55:04;16.05;;;6.93;;
16965;SDS011;8599;47.852;12.070;2023-07-02T12:57:31;14.60;;;7.68;;
16965;SDS011;8599;47.852;12.070;2023-07-02T12:59:59;13.70;;;6.70;;
16965;SDS011;8599;47.852;12.070;2023-07-02T13:02:26;12.52;;;7.35;;
16965;SDS011;8599;47.852;12.070;2023-07-02T13:04:53;13.52;;;7.05;;
16965;SDS011;8599;47.852;12.070;2023-07-02T13:07:20;11.55;;;7.30;;
16965;SDS011;8599;47.852;12.070;2023-07-02T13:09:48;10.07;;;6.25;;
16965;SDS011;8599;47.852;12.070;2023-07-02T13:12:15;10.98;;;6.00;;
16965;SDS011;8599;47.852;12.070;2023-07-02T13:14:42;12.68;;;5.63;;
16965;SDS011;8599;47.852;12.070;2023-07-02T13:17:10;9.55;;;6.18;;
16965;SDS011;8599;47.852;12.070;2023-07-02T13:19:37;10.15;;;6.07;;
16965;SDS011;8599;47.852;12.070;2023-07-02T13:22:04;15.43;;;6.55;;
16965;SDS011;8599;47.852;12.070;2023-07-02T13:24:34;8.98;;;5.97;;
16965;SDS011;8599;47.852;12.070;2023-07-02T13:27:02;10.90;;;6.10;;
16965;SDS011;8599;47.852;12.070;2023-07-02T13:29:30;11.02;;;6.20;;
16965;SDS011;8599;47.852;12.070;2023-07-02T13:31:56;10.80;;;5.93;;
16965;SDS011;8599;47.852;12.070;2023-07-02T13:34:24;10.07;;;6.00;;
16965;SDS011;8599;47.852;12.070;2023-07-02T13:36:51;10.88;;;7.25;;
16965;SDS011;8599;47.852;12.070;2023-07-02T13:39:18;9.55;;;5.88;;
16965;SDS011;8599;47.852;12.070;2023-07-02T13:41:45;8.23;;;5.63;;
16965;SDS011;8599;47.852;12.070;2023-07-02T13:44:13;10.48;;;5.65;;
16965;SDS011;8599;47.852;12.070;2023-07-02T13:46:41;9.73;;;5.68;;
16965;SDS011;8599;47.852;12.070;2023-07-02T13:49:09;15.07;;;5.90;;
16965;SDS011;8599;47.852;12.070;2023-07-02T13:51:37;14.55;;;5.97;;
16965;SDS011;8599;47.852;12.070;2023-07-02T13:54:03;8.95;;;5.60;;
16965;SDS011;8599;47.852;12.070;2023-07-02T13:56:30;10.75;;;6.20;;
16965;SDS011;8599;47.852;12.070;2023-07-02T13:59:03;7.85;;;5.30;;
16965;SDS011;8599;47.852;12.070;2023-07-02T14:01:30;11.20;;;5.72;;
16965;SDS011;8599;47.852;12.070;2023-07-02T14:03:57;9.48;;;5.28;;
16965;SDS011;8599;47.852;12.070;2023-07-02T14:06:24;9.32;;;5.22;;
16965;SDS011;8599;47.852;12.070;2023-07-02T14:08:51;9.30;;;5.40;;
16965;SDS011;8599;47.852;12.070;2023-07-02T14:11:18;9.20;;;5.80;;
16965;SDS011;8599;47.852;12.070;2023-07-02T14:13:46;8.68;;;4.90;;
16965;SDS011;8599;47.852;12.070;2023-07-02T14:16:14;9.45;;;5.22;;
16965;SDS011;8599;47.852;12.070;2023-07-02T14:18:41;11.73;;;4.90;;
16965;SDS011;8599;47.852;12.070;2023-07-02T14:21:08;9.50;;;4.60;;
16965;SDS011;8599;47.852;12.070;2023-07-02T14:23:35;7.70;;;5.05;;
16965;SDS011;8599;47.852;12.070;2023-07-02T14:26:02;8.18;;;4.55;;
16965;SDS011;8599;47.852;12.070;2023-07-02T14:28:28;5.15;;;4.10;;
16965;SDS011;8599;47.852;12.070;2023-07-02T14:30:56;8.55;;;4.95;;
16965;SDS011;8599;47.852;12.070;2023-07-02T14:33:25;5.85;;;4.32;;
16965;SDS011;8599;47.852;12.070;2023-07-02T14:35:52;7.60;;;5.07;;
16965;SDS011;8599;47.852;12.070;2023-07-02T14:38:19;8.50;;;5.13;;
16965;SDS011;8599;47.852;12.070;2023-07-02T14:40:47;6.13;;;4.65;;
16965;SDS011;8599;47.852;12.070;2023-07-02T14:43:14;8.70;;;4.75;;
16965;SDS011;8599;47.852;12.070;2023-07-02T14:45:46;8.98;;;4.68;;
16965;SDS011;8599;47.852;12.070;2023-07-02T14:48:14;7.68;;;4.82;;